createdAt,value
2022-09-28T00:01:18.658Z,74.70
2022-09-28T00:03:47.506Z,74.80
2022-09-28T00:06:18.512Z,74.70
2022-09-28T00:08:50.252Z,74.80
2022-09-28T00:11:20.737Z,74.80
2022-09-28T00:13:52.371Z,74.90
2022-09-28T00:16:24.071Z,75.20
2022-09-28T00:18:52.388Z,75.30
2022-09-28T00:21:22.783Z,75.30
2022-09-28T00:24:14.899Z,75.50
2022-09-28T00:26:45.720Z,75.60
2022-09-28T00:29:21.363Z,75.40
2022-09-28T00:31:52.306Z,75.70
2022-09-28T00:34:21.940Z,75.40
2022-09-28T00:36:50.144Z,75.60
2022-09-28T00:39:19.795Z,75.70
2022-09-28T00:41:48.267Z,75.80
2022-09-28T00:44:58.863Z,75.70
2022-09-28T00:47:49.738Z,76.70
2022-09-28T00:50:28.079Z,76.60
2022-09-28T00:53:01.840Z,76.60
2022-09-28T00:55:37.630Z,76.10
2022-09-28T00:58:08.823Z,76.20
2022-09-28T01:00:37.049Z,76.20
2022-09-28T01:03:05.517Z,76.00
2022-09-28T01:05:35.651Z,76.90
2022-09-28T01:08:04.583Z,76.30
2022-09-28T01:10:34.723Z,76.30
2022-09-28T01:13:02.972Z,76.50
2022-09-28T01:15:35.064Z,76.30
2022-09-28T01:18:12.697Z,76.50
2022-09-28T01:20:54.408Z,76.90
2022-09-28T01:24:05.183Z,77.40
2022-09-28T01:26:46.881Z,77.60
2022-09-28T01:29:23.285Z,77.20
2022-09-28T01:31:56.612Z,77.10
2022-09-28T01:34:27.339Z,77.00
2022-09-28T01:36:58.841Z,77.00
2022-09-28T01:39:32.471Z,76.60
2022-09-28T01:42:06.796Z,76.80
2022-09-28T01:44:39.854Z,77.10
2022-09-28T01:47:11.472Z,77.00
2022-09-28T01:49:44.973Z,77.10
2022-09-28T01:52:18.659Z,77.40
2022-09-28T01:54:51.249Z,77.30
2022-09-28T01:57:26.753Z,77.20
2022-09-28T02:00:07.511Z,77.40
2022-09-28T02:02:39.430Z,77.70
2022-09-28T02:05:13.046Z,77.30
2022-09-28T02:07:46.863Z,77.40
2022-09-28T02:10:17.692Z,77.50
2022-09-28T02:12:50.193Z,77.50
2022-09-28T02:15:22.043Z,77.90
2022-09-28T02:17:50.838Z,78.60
2022-09-28T02:20:19.519Z,77.70
2022-09-28T02:22:51.163Z,77.70
2022-09-28T02:25:27.787Z,77.90
2022-09-28T02:28:00.919Z,78.10
2022-09-28T02:30:30.532Z,78.00
2022-09-28T02:33:07.282Z,77.90
2022-09-28T02:35:35.735Z,78.10
2022-09-28T02:38:03.890Z,77.80
2022-09-28T02:40:34.960Z,77.80
2022-09-28T02:43:13.313Z,77.90
2022-09-28T02:45:54.991Z,78.20
2022-09-28T02:48:43.956Z,78.20
2022-09-28T02:51:24.013Z,78.20
2022-09-28T02:54:21.656Z,78.10
2022-09-28T02:57:06.020Z,77.90
2022-09-28T02:59:54.232Z,77.60
2022-09-28T03:02:29.983Z,77.50
2022-09-28T03:05:21.686Z,77.40
2022-09-28T03:07:58.546Z,77.50
2022-09-28T03:10:35.952Z,77.50
2022-09-28T03:13:05.627Z,77.30
2022-09-28T03:15:36.317Z,77.20
2022-09-28T03:18:05.307Z,77.20
2022-09-28T03:20:35.201Z,77.20
2022-09-28T03:23:23.992Z,77.30
2022-09-28T03:25:52.228Z,77.30
2022-09-28T03:28:21.325Z,77.20
2022-09-28T03:30:51.070Z,77.20
2022-09-28T03:33:19.787Z,77.40
2022-09-28T03:35:49.089Z,77.50
2022-09-28T03:38:18.262Z,77.50
2022-09-28T03:40:53.264Z,77.50
2022-09-28T03:43:21.509Z,77.50
2022-09-28T03:45:55.257Z,77.50
2022-09-28T03:48:28.665Z,77.70
2022-09-28T03:51:00.818Z,77.50
2022-09-28T03:53:29.999Z,77.40
2022-09-28T03:56:03.169Z,77.40
2022-09-28T03:58:31.358Z,77.20
2022-09-28T04:01:05.795Z,77.30
2022-09-28T04:03:34.611Z,77.40
2022-09-28T04:06:02.937Z,77.20
2022-09-28T04:08:31.055Z,77.20
2022-09-28T04:10:59.796Z,77.20
2022-09-28T04:13:28.817Z,77.30
2022-09-28T04:15:59.298Z,77.30
2022-09-28T04:18:29.496Z,77.40
2022-09-28T04:21:07.022Z,77.50
2022-09-28T04:23:36.701Z,77.50
2022-09-28T04:26:05.810Z,77.30
2022-09-28T04:28:51.490Z,77.30
2022-09-28T04:31:22.581Z,77.20
2022-09-28T04:33:52.357Z,77.20
2022-09-28T04:36:20.763Z,77.20
2022-09-28T04:38:53.246Z,77.20
2022-09-28T04:41:22.905Z,77.20
2022-09-28T04:43:51.381Z,77.20
2022-09-28T04:46:19.892Z,77.20
2022-09-28T04:48:48.085Z,77.20
2022-09-28T04:51:17.585Z,77.20
2022-09-28T04:53:45.780Z,77.20
2022-09-28T04:56:15.243Z,77.00
2022-09-28T04:58:44.756Z,77.00
2022-09-28T05:01:24.338Z,76.90
2022-09-28T05:03:52.558Z,76.90
2022-09-28T05:06:22.935Z,76.90
2022-09-28T05:08:51.077Z,77.00
2022-09-28T05:11:21.364Z,76.90
2022-09-28T05:13:50.441Z,76.90
2022-09-28T05:16:20.396Z,77.00
2022-09-28T05:18:48.753Z,77.10
2022-09-28T05:21:20.117Z,77.10
2022-09-28T05:23:49.690Z,77.00
2022-09-28T05:26:18.078Z,76.90
2022-09-28T05:28:46.314Z,76.90
2022-09-28T05:31:14.467Z,77.00
2022-09-28T05:33:42.561Z,77.00
2022-09-28T05:36:11.632Z,77.20
2022-09-28T05:38:40.183Z,77.30
2022-09-28T05:41:09.805Z,77.50
2022-09-28T05:43:38.485Z,77.60
2022-09-28T05:46:07.383Z,77.70
2022-09-28T05:48:35.811Z,77.70
2022-09-28T05:51:04.210Z,77.70
2022-09-28T05:53:32.301Z,77.80
2022-09-28T05:56:00.881Z,77.70
2022-09-28T05:58:30.843Z,77.60
2022-09-28T06:00:59.142Z,78.30
2022-09-28T06:03:27.342Z,77.50
2022-09-28T06:05:55.879Z,77.40
2022-09-28T06:08:24.161Z,77.50
2022-09-28T06:10:52.265Z,77.40
2022-09-28T06:13:20.742Z,77.40
2022-09-28T06:15:50.557Z,77.30
2022-09-28T06:18:18.883Z,77.30
2022-09-28T06:20:47.050Z,77.20
2022-09-28T06:23:15.606Z,77.20
2022-09-28T06:25:43.921Z,77.20
2022-09-28T06:28:16.285Z,77.20
2022-09-28T06:30:45.162Z,77.30
2022-09-28T06:33:16.344Z,77.40
2022-09-28T06:35:44.525Z,77.40
2022-09-28T06:38:13.059Z,77.30
2022-09-28T06:40:41.262Z,77.30
2022-09-28T06:43:14.884Z,77.20
2022-09-28T06:45:44.332Z,77.30
2022-09-28T06:48:15.052Z,77.20
2022-09-28T06:50:43.407Z,77.20
2022-09-28T06:53:13.654Z,77.30
2022-09-28T06:55:42.471Z,77.40
2022-09-28T06:58:15.563Z,77.40
2022-09-28T07:00:44.134Z,77.30
2022-09-28T07:03:15.931Z,77.00
2022-09-28T07:05:46.628Z,76.70
2022-09-28T07:08:15.891Z,76.60
2022-09-28T07:10:46.536Z,76.50
2022-09-28T07:13:40.184Z,76.30
2022-09-28T07:16:03.723Z,76.20
2022-09-28T07:18:33.348Z,76.00
2022-09-28T07:21:02.895Z,75.90
2022-09-28T07:23:31.365Z,75.80
2022-09-28T07:26:05.765Z,75.90
2022-09-28T07:28:34.750Z,76.00
2022-09-28T07:31:03.730Z,75.90
2022-09-28T07:33:33.436Z,76.00
2022-09-28T07:36:06.492Z,76.00
2022-09-28T07:38:34.913Z,75.80
2022-09-28T07:41:14.838Z,75.90
2022-09-28T07:43:43.651Z,75.80
2022-09-28T07:46:13.234Z,75.70
2022-09-28T07:48:45.751Z,75.70
2022-09-28T07:51:13.964Z,75.80
2022-09-28T07:53:43.295Z,75.80
2022-09-28T07:56:11.987Z,75.80
2022-09-28T07:58:41.222Z,75.80
2022-09-28T08:01:11.891Z,75.70
2022-09-28T08:03:40.556Z,75.60
2022-09-28T08:06:12.786Z,75.80
2022-09-28T08:08:44.626Z,75.80
2022-09-28T08:11:13.615Z,75.80
2022-09-28T08:13:41.965Z,75.70
2022-09-28T08:16:10.041Z,75.80
2022-09-28T08:18:38.225Z,75.80
2022-09-28T08:21:25.149Z,75.80
2022-09-28T08:23:54.843Z,75.70
2022-09-28T08:26:22.998Z,75.90
2022-09-28T08:28:51.263Z,76.00
2022-09-28T08:31:19.454Z,76.00
2022-09-28T08:33:54.434Z,76.30
2022-09-28T08:36:22.636Z,76.60
2022-09-28T08:38:50.863Z,76.50
2022-09-28T08:41:27.694Z,76.40
2022-09-28T08:44:17.061Z,75.60
2022-09-28T08:46:48.569Z,74.50
2022-09-28T08:49:26.295Z,73.80
2022-09-28T08:52:00.567Z,72.80
2022-09-28T08:54:36.523Z,72.70
2022-09-28T08:57:11.310Z,72.40
2022-09-28T08:59:48.142Z,72.30
2022-09-28T09:02:20.225Z,72.00
2022-09-28T09:04:48.800Z,72.20
2022-09-28T09:07:52.309Z,72.30
2022-09-28T09:10:48.397Z,72.00
2022-09-28T09:13:35.431Z,72.50
2022-09-28T09:16:12.588Z,72.90
2022-09-28T09:18:49.514Z,73.10
2022-09-28T09:21:30.518Z,72.60
2022-09-28T09:24:05.101Z,72.30
2022-09-28T09:26:39.215Z,72.10
2022-09-28T09:29:23.546Z,72.10
2022-09-28T09:32:15.571Z,72.00
2022-09-28T09:34:58.961Z,71.40
2022-09-28T09:37:40.252Z,71.00
2022-09-28T09:40:28.074Z,71.20
2022-09-28T09:43:07.360Z,70.80
2022-09-28T09:45:51.360Z,71.40
2022-09-28T09:48:26.984Z,71.30
2022-09-28T09:50:58.465Z,71.30
2022-09-28T09:53:36.209Z,70.20
2022-09-28T09:56:13.325Z,68.90
2022-09-28T09:58:46.208Z,68.10
2022-09-28T10:01:19.399Z,67.30
2022-09-28T10:03:49.253Z,67.40
2022-09-28T10:06:20.603Z,68.50
2022-09-28T10:08:53.887Z,67.50
2022-09-28T10:11:23.430Z,67.10
2022-09-28T10:13:52.117Z,68.00
2022-09-28T10:16:21.852Z,67.90
2022-09-28T10:18:50.708Z,68.00
2022-09-28T10:21:23.128Z,68.60
2022-09-28T10:23:56.661Z,69.00
2022-09-28T10:26:30.216Z,69.60
2022-09-28T10:29:03.036Z,70.20
2022-09-28T10:31:41.584Z,70.90
2022-09-28T10:34:14.206Z,71.00
2022-09-28T10:36:52.616Z,70.90
2022-09-28T10:39:30.587Z,69.80
2022-09-28T10:42:00.431Z,69.90
2022-09-28T10:44:28.832Z,70.70
2022-09-28T10:47:01.498Z,70.80
2022-09-28T10:49:31.936Z,69.80
2022-09-28T10:52:00.251Z,69.40
2022-09-28T10:54:30.922Z,68.80
2022-09-28T10:57:00.246Z,68.50
2022-09-28T10:59:42.060Z,67.90
2022-09-28T11:02:26.022Z,66.30
2022-09-28T11:04:56.574Z,66.00
2022-09-28T11:07:27.241Z,66.60
2022-09-28T11:09:56.803Z,66.10
2022-09-28T11:12:27.335Z,65.80
2022-09-28T11:15:01.703Z,66.10
2022-09-28T11:17:33.513Z,65.60
2022-09-28T11:20:26.768Z,66.20
2022-09-28T11:22:57.041Z,66.00
2022-09-28T11:25:27.627Z,65.90
2022-09-28T11:28:01.707Z,65.70
2022-09-28T11:30:33.915Z,65.00
2022-09-28T11:33:15.011Z,65.10
2022-09-28T11:35:51.356Z,64.90
2022-09-28T11:38:34.131Z,65.30
2022-09-28T11:41:18.420Z,65.00
2022-09-28T11:44:06.080Z,65.70
2022-09-28T11:46:41.524Z,65.70
2022-09-28T11:49:27.642Z,66.00
2022-09-28T11:52:02.816Z,65.80
2022-09-28T11:54:35.252Z,66.00
2022-09-28T11:57:08.264Z,66.30
2022-09-28T11:59:43.882Z,66.00
2022-09-28T12:02:17.865Z,66.00
2022-09-28T12:04:53.319Z,65.90
2022-09-28T12:07:26.911Z,65.30
2022-09-28T12:09:59.277Z,65.20
2022-09-28T12:12:33.541Z,65.40
2022-09-28T12:15:05.550Z,65.80
2022-09-28T12:17:40.037Z,66.90
2022-09-28T12:20:19.430Z,66.80
2022-09-28T12:22:53.369Z,65.70
2022-09-28T12:25:24.422Z,65.50
2022-09-28T12:27:57.417Z,64.40
2022-09-28T12:30:26.524Z,63.50
2022-09-28T12:32:58.349Z,63.00
2022-09-28T12:35:40.675Z,62.40
2022-09-28T12:38:30.301Z,62.30
2022-09-28T12:41:07.856Z,61.80
2022-09-28T12:43:55.121Z,62.50
2022-09-28T12:46:41.333Z,64.40
2022-09-28T12:52:34.139Z,65.70
2022-09-28T12:55:24.473Z,65.00
2022-09-28T12:58:04.416Z,63.60
2022-09-28T13:00:41.087Z,62.20
2022-09-28T13:03:35.309Z,61.20
2022-09-28T13:06:46.238Z,60.00
2022-09-28T13:09:24.609Z,60.70
2022-09-28T13:12:05.227Z,61.10
2022-09-28T13:15:10.109Z,60.80
2022-09-28T13:17:46.322Z,58.90
2022-09-28T13:20:25.661Z,59.10
2022-09-28T13:23:02.327Z,57.70
2022-09-28T13:25:36.249Z,57.30
2022-09-28T13:28:06.100Z,57.20
2022-09-28T13:30:36.982Z,57.70
2022-09-28T13:33:08.122Z,57.20
2022-09-28T13:35:36.251Z,57.20
2022-09-28T13:38:44.347Z,57.20
2022-09-28T13:41:17.794Z,55.40
2022-09-28T13:44:03.224Z,55.70
2022-09-28T13:46:42.144Z,54.80
2022-09-28T13:49:18.423Z,54.50
2022-09-28T13:52:03.890Z,54.40
2022-09-28T13:54:51.985Z,54.10
2022-09-28T13:57:27.903Z,54.10
2022-09-28T14:00:08.613Z,54.70
2022-09-28T14:02:40.983Z,54.60
2022-09-28T14:05:49.100Z,55.10
2022-09-28T14:08:39.611Z,55.00
2022-09-28T14:11:49.218Z,55.10
2022-09-28T14:14:49.181Z,55.10
2022-09-28T14:17:53.971Z,55.70
2022-09-28T14:20:28.147Z,55.30
2022-09-28T14:23:21.007Z,56.00
2022-09-28T14:26:29.361Z,55.50
2022-09-28T14:29:10.152Z,55.30
2022-09-28T14:31:43.832Z,55.60
2022-09-28T14:34:27.248Z,55.80
2022-09-28T14:37:12.893Z,55.40
2022-09-28T14:40:03.634Z,56.30
2022-09-28T14:42:32.018Z,55.90
2022-09-28T14:45:20.402Z,56.50
2022-09-28T14:48:21.432Z,55.80
2022-09-28T14:50:51.502Z,55.90
2022-09-28T14:53:23.911Z,56.10
2022-09-28T14:55:56.568Z,56.10
2022-09-28T14:58:27.506Z,56.00
2022-09-28T15:01:02.183Z,56.20
2022-09-28T15:03:33.814Z,56.20
2022-09-28T15:06:03.283Z,56.40
2022-09-28T15:08:39.388Z,56.40
2022-09-28T15:11:21.392Z,56.30
2022-09-28T15:13:53.252Z,56.80
2022-09-28T15:16:25.175Z,56.80
2022-09-28T15:19:24.641Z,56.40
2022-09-28T15:21:54.610Z,56.30
2022-09-28T15:24:27.374Z,56.70
2022-09-28T15:26:59.045Z,56.50
2022-09-28T15:29:31.113Z,56.90
2022-09-28T15:31:59.695Z,56.90
2022-09-28T15:34:49.350Z,56.90
2022-09-28T15:37:22.561Z,56.90
2022-09-28T15:39:52.606Z,56.80
2022-09-28T15:42:21.883Z,56.90
2022-09-28T15:45:24.791Z,56.90
2022-09-28T15:47:57.670Z,56.70
2022-09-28T15:50:29.191Z,57.20
2022-09-28T15:53:01.726Z,57.30
2022-09-28T15:55:33.047Z,57.90
2022-09-28T15:58:16.599Z,58.50
2022-09-28T16:00:45.088Z,58.30
2022-09-28T16:03:28.831Z,58.80
2022-09-28T16:06:08.026Z,58.30
2022-09-28T16:08:42.163Z,57.80
2022-09-28T16:11:16.245Z,57.30
2022-09-28T16:13:56.598Z,57.30
2022-09-28T16:16:29.903Z,56.70
2022-09-28T16:18:58.717Z,56.70
2022-09-28T16:21:36.235Z,57.60
2022-09-28T16:24:07.383Z,56.50
2022-09-28T16:26:38.998Z,56.60
2022-09-28T16:29:25.882Z,56.70
2022-09-28T16:31:54.235Z,56.80
2022-09-28T16:34:26.445Z,57.10
2022-09-28T16:36:56.164Z,57.00
2022-09-28T16:39:25.715Z,57.30
2022-09-28T16:41:56.830Z,57.30
2022-09-28T16:44:27.050Z,57.60
2022-09-28T16:46:57.059Z,57.80
2022-09-28T16:49:26.953Z,58.00
2022-09-28T16:51:55.291Z,58.20
2022-09-28T16:54:47.755Z,58.30
2022-09-28T16:57:16.759Z,58.40
2022-09-28T16:59:45.107Z,58.60
2022-09-28T17:02:46.372Z,58.90
2022-09-28T17:05:10.211Z,59.10
2022-09-28T17:07:38.552Z,59.30
2022-09-28T17:10:17.674Z,59.60
2022-09-28T17:12:45.948Z,59.80
2022-09-28T17:15:15.739Z,59.90
2022-09-28T17:17:43.879Z,60.20
2022-09-28T17:20:20.335Z,60.50
2022-09-28T17:22:48.830Z,60.90
2022-09-28T17:25:18.571Z,60.80
2022-09-28T17:27:48.822Z,61.20
2022-09-28T17:30:17.537Z,61.40
2022-09-28T17:32:47.104Z,61.70
2022-09-28T17:35:25.460Z,61.80
2022-09-28T17:37:54.448Z,62.00
2022-09-28T17:40:25.758Z,62.20
2022-09-28T17:42:56.126Z,62.40
2022-09-28T17:45:25.810Z,62.70
2022-09-28T17:47:54.034Z,62.80
2022-09-28T17:50:25.421Z,63.00
2022-09-28T17:52:55.662Z,63.20
2022-09-28T17:55:28.576Z,63.30
2022-09-28T17:57:57.636Z,63.70
2022-09-28T18:00:27.824Z,63.70
2022-09-28T18:02:56.181Z,63.80
2022-09-28T18:05:25.674Z,64.10
2022-09-28T18:07:54.705Z,64.20
2022-09-28T18:10:26.355Z,64.40
2022-09-28T18:12:54.691Z,64.60
2022-09-28T18:15:22.827Z,64.80
2022-09-28T18:17:50.967Z,64.90
2022-09-28T18:20:19.107Z,65.20
2022-09-28T18:22:47.235Z,65.40
2022-09-28T18:25:15.352Z,65.50
2022-09-28T18:27:44.840Z,65.60
2022-09-28T18:30:13.421Z,65.80
2022-09-28T18:32:41.588Z,65.80
2022-09-28T18:35:11.315Z,65.70
2022-09-28T18:37:40.032Z,65.90
2022-09-28T18:40:09.991Z,65.90
2022-09-28T18:42:38.319Z,66.10
2022-09-28T18:45:11.896Z,66.20
2022-09-28T18:47:40.151Z,66.50
2022-09-28T18:50:09.246Z,66.30
2022-09-28T18:52:37.836Z,66.40
2022-09-28T18:55:07.578Z,66.40
2022-09-28T18:57:36.544Z,66.40
2022-09-28T19:00:09.224Z,66.30
2022-09-28T19:02:38.013Z,67.10
2022-09-28T19:05:07.285Z,66.40
2022-09-28T19:07:35.947Z,66.50
2022-09-28T19:10:04.313Z,66.70
2022-09-28T19:12:33.847Z,66.90
2022-09-28T19:15:02.019Z,67.10
2022-09-28T19:17:31.605Z,67.10
2022-09-28T19:19:59.754Z,67.30
2022-09-28T19:22:28.003Z,67.30
2022-09-28T19:24:56.827Z,67.40
2022-09-28T19:27:24.954Z,67.40
2022-09-28T19:29:53.036Z,67.40
2022-09-28T19:32:21.106Z,67.40
2022-09-28T19:34:50.709Z,67.40
2022-09-28T19:37:18.811Z,67.50
2022-09-28T19:39:46.891Z,67.50
2022-09-28T19:42:15.003Z,67.60
2022-09-28T19:44:43.937Z,67.70
2022-09-28T19:47:13.091Z,67.70
2022-09-28T19:49:41.893Z,67.80
2022-09-28T19:52:15.620Z,67.90
2022-09-28T19:54:54.395Z,68.10
2022-09-28T19:57:23.470Z,68.10
2022-09-28T19:59:52.775Z,68.20
2022-09-28T20:02:22.109Z,68.30
2022-09-28T20:04:50.375Z,68.20
2022-09-28T20:07:19.911Z,67.90
2022-09-28T20:09:48.073Z,67.80
2022-09-28T20:12:16.175Z,67.80
2022-09-28T20:14:44.298Z,67.80
2022-09-28T20:17:12.452Z,67.70
2022-09-28T20:19:40.564Z,67.60
2022-09-28T20:22:08.732Z,67.60
2022-09-28T20:24:38.251Z,67.70
2022-09-28T20:27:06.778Z,67.80
2022-09-28T20:29:35.332Z,67.70
2022-09-28T20:32:04.402Z,67.70
2022-09-28T20:34:33.574Z,67.70
2022-09-28T20:37:01.936Z,67.80
2022-09-28T20:39:30.087Z,67.80
2022-09-28T20:41:59.899Z,67.80
2022-09-28T20:44:28.234Z,67.80
2022-09-28T20:46:56.763Z,67.60
2022-09-28T20:49:26.276Z,67.60
2022-09-28T20:51:54.547Z,67.50
2022-09-28T20:54:22.751Z,67.50
2022-09-28T20:56:50.895Z,67.40
2022-09-28T20:59:22.884Z,67.30
2022-09-28T21:01:51.292Z,67.40
2022-09-28T21:04:19.588Z,67.40
2022-09-28T21:06:47.823Z,67.30
2022-09-28T21:09:15.926Z,67.20
2022-09-28T21:11:44.208Z,67.20
2022-09-28T21:14:12.451Z,67.20
2022-09-28T21:16:42.182Z,67.20
2022-09-28T21:19:10.298Z,67.20
2022-09-28T21:21:38.372Z,67.30
2022-09-28T21:24:06.955Z,67.40
2022-09-28T21:26:35.223Z,67.40
2022-09-28T21:29:05.403Z,67.50
2022-09-28T21:31:38.361Z,67.60
2022-09-28T21:34:08.422Z,67.50
2022-09-28T21:36:36.740Z,67.60
2022-09-28T21:39:09.533Z,67.60
2022-09-28T21:41:38.749Z,67.60
2022-09-28T21:44:07.764Z,67.60
2022-09-28T21:46:36.697Z,67.70
2022-09-28T21:49:07.783Z,67.70
2022-09-28T21:51:36.255Z,68.50
2022-09-28T21:54:04.591Z,67.80
2022-09-28T21:56:32.663Z,67.90
2022-09-28T21:59:01.214Z,67.90
2022-09-28T22:01:29.511Z,67.90
2022-09-28T22:03:58.295Z,68.00
2022-09-28T22:06:29.079Z,68.10
2022-09-28T22:08:57.717Z,68.30
2022-09-28T22:11:27.279Z,68.30
2022-09-28T22:13:57.282Z,68.30
2022-09-28T22:16:27.370Z,68.40
2022-09-28T22:18:55.523Z,68.60
2022-09-28T22:21:24.838Z,68.60
2022-09-28T22:23:55.041Z,68.80
2022-09-28T22:26:25.111Z,69.00
2022-09-28T22:28:55.005Z,69.00
2022-09-28T22:31:25.099Z,69.00
2022-09-28T22:33:53.710Z,68.90
2022-09-28T22:36:22.318Z,68.90
2022-09-28T22:38:50.800Z,69.10
2022-09-28T22:41:21.623Z,69.30
2022-09-28T22:43:50.900Z,69.50
2022-09-28T22:46:20.704Z,69.50
2022-09-28T22:48:50.138Z,69.70
2022-09-28T22:51:18.696Z,70.00
2022-09-28T22:53:46.968Z,70.10
2022-09-28T22:56:18.808Z,70.30
2022-09-28T22:58:48.751Z,70.50
2022-09-28T23:01:18.749Z,70.80
2022-09-28T23:03:47.206Z,70.80
2022-09-28T23:06:17.943Z,70.80
2022-09-28T23:08:47.405Z,70.90
2022-09-28T23:11:15.997Z,71.00
2022-09-28T23:13:44.390Z,70.90
2022-09-28T23:16:14.897Z,70.90
2022-09-28T23:18:43.826Z,70.90
2022-09-28T23:21:15.241Z,70.80
2022-09-28T23:23:43.502Z,70.90
2022-09-28T23:26:13.252Z,70.90
2022-09-28T23:28:41.850Z,71.10
2022-09-28T23:31:11.610Z,71.00
2022-09-28T23:33:41.171Z,71.20
2022-09-28T23:36:10.490Z,71.50
2022-09-28T23:38:39.092Z,71.60
2022-09-28T23:41:07.312Z,71.70
2022-09-28T23:43:36.342Z,71.80
2022-09-28T23:46:04.961Z,71.90
2022-09-28T23:48:33.476Z,71.90
2022-09-28T23:51:03.501Z,72.00
2022-09-28T23:53:33.250Z,72.20
2022-09-28T23:56:01.547Z,72.10
2022-09-28T23:58:29.672Z,72.30
